sensor_id;sensor_type;location;lat;lon;timestamp;temperature;humidity
75931;DHT22;64609;47.052;15.462;2023-03-01T00:01:26;7.70;55.90
75931;DHT22;64609;47.052;15.462;2023-03-01T00:03:52;7.80;56.20
75931;DHT22;64609;47.052;15.462;2023-03-01T00:06:19;7.80;56.30
75931;DHT22;64609;47.052;15.462;2023-03-01T00:08:45;7.80;57.10
75931;DHT22;64609;47.052;15.462;2023-03-01T00:11:15;7.80;57.00
75931;DHT22;64609;47.052;15.462;2023-03-01T00:13:43;7.80;56.50
75931;DHT22;64609;47.052;15.462;2023-03-01T00:16:12;7.80;56.20
75931;DHT22;64609;47.052;15.462;2023-03-01T00:18:38;7.80;56.20
75931;DHT22;64609;47.052;15.462;2023-03-01T00:21:05;7.80;56.20
75931;DHT22;64609;47.052;15.462;2023-03-01T00:23:31;7.80;55.90
75931;DHT22;64609;47.052;15.462;2023-03-01T00:25:57;7.80;56.00
75931;DHT22;64609;47.052;15.462;2023-03-01T00:28:23;7.80;56.20
75931;DHT22;64609;47.052;15.462;2023-03-01T00:30:49;7.80;56.90
75931;DHT22;64609;47.052;15.462;2023-03-01T00:33:14;7.80;56.40
75931;DHT22;64609;47.052;15.462;2023-03-01T00:35:40;7.80;56.30
75931;DHT22;64609;47.052;15.462;2023-03-01T00:38:06;7.80;55.70
75931;DHT22;64609;47.052;15.462;2023-03-01T00:40:34;7.70;56.20
75931;DHT22;64609;47.052;15.462;2023-03-01T00:43:00;7.70;56.40
75931;DHT22;64609;47.052;15.462;2023-03-01T00:45:26;7.70;56.10
75931;DHT22;64609;47.052;15.462;2023-03-01T00:47:53;7.70;56.40
75931;DHT22;64609;47.052;15.462;2023-03-01T00:50:19;7.70;56.40
75931;DHT22;64609;47.052;15.462;2023-03-01T00:52:45;7.70;56.10
75931;DHT22;64609;47.052;15.462;2023-03-01T00:55:11;7.70;56.10
75931;DHT22;64609;47.052;15.462;2023-03-01T00:57:37;7.60;55.60
75931;DHT22;64609;47.052;15.462;2023-03-01T01:00:04;7.50;55.60
75931;DHT22;64609;47.052;15.462;2023-03-01T01:02:32;7.50;56.00
75931;DHT22;64609;47.052;15.462;2023-03-01T01:04:58;7.60;56.80
75931;DHT22;64609;47.052;15.462;2023-03-01T01:07:24;7.60;57.10
75931;DHT22;64609;47.052;15.462;2023-03-01T01:09:50;7.60;57.20
75931;DHT22;64609;47.052;15.462;2023-03-01T01:12:15;7.60;56.00
75931;DHT22;64609;47.052;15.462;2023-03-01T01:14:41;7.60;56.70
75931;DHT22;64609;47.052;15.462;2023-03-01T01:17:07;7.60;56.40
75931;DHT22;64609;47.052;15.462;2023-03-01T01:19:32;7.60;56.10
75931;DHT22;64609;47.052;15.462;2023-03-01T01:21:58;7.60;56.20
75931;DHT22;64609;47.052;15.462;2023-03-01T01:24:23;7.60;56.80
75931;DHT22;64609;47.052;15.462;2023-03-01T01:26:49;7.60;57.00
75931;DHT22;64609;47.052;15.462;2023-03-01T01:29:15;7.60;57.30
75931;DHT22;64609;47.052;15.462;2023-03-01T01:31:42;7.60;57.40
75931;DHT22;64609;47.052;15.462;2023-03-01T01:34:13;7.60;57.50
75931;DHT22;64609;47.052;15.462;2023-03-01T01:36:39;7.60;57.70
75931;DHT22;64609;47.052;15.462;2023-03-01T01:39:05;7.60;57.60
75931;DHT22;64609;47.052;15.462;2023-03-01T01:41:30;7.70;57.90
75931;DHT22;64609;47.052;15.462;2023-03-01T01:46:44;7.70;58.10
75931;DHT22;64609;47.052;15.462;2023-03-01T01:49:19;7.70;57.90
75931;DHT22;64609;47.052;15.462;2023-03-01T01:51:47;7.70;57.60
75931;DHT22;64609;47.052;15.462;2023-03-01T01:54:18;7.70;57.80
75931;DHT22;64609;47.052;15.462;2023-03-01T01:56:49;7.70;57.80
75931;DHT22;64609;47.052;15.462;2023-03-01T01:59:16;7.70;57.70
75931;DHT22;64609;47.052;15.462;2023-03-01T02:01:43;7.70;57.70
75931;DHT22;64609;47.052;15.462;2023-03-01T02:04:09;7.70;57.80
75931;DHT22;64609;47.052;15.462;2023-03-01T02:06:39;7.70;57.70
75931;DHT22;64609;47.052;15.462;2023-03-01T02:09:13;7.70;57.90
75931;DHT22;64609;47.052;15.462;2023-03-01T02:11:40;7.70;58.00
75931;DHT22;64609;47.052;15.462;2023-03-01T02:14:06;7.70;57.90
75931;DHT22;64609;47.052;15.462;2023-03-01T02:16:32;7.70;58.30
75931;DHT22;64609;47.052;15.462;2023-03-01T02:18:58;7.80;58.40
75931;DHT22;64609;47.052;15.462;2023-03-01T02:21:32;7.80;57.70
75931;DHT22;64609;47.052;15.462;2023-03-01T02:24:29;7.80;58.40
75931;DHT22;64609;47.052;15.462;2023-03-01T02:26:56;7.80;57.80
75931;DHT22;64609;47.052;15.462;2023-03-01T02:29:23;7.80;57.40
75931;DHT22;64609;47.052;15.462;2023-03-01T02:31:51;7.80;57.40
75931;DHT22;64609;47.052;15.462;2023-03-01T02:34:22;7.70;57.20
75931;DHT22;64609;47.052;15.462;2023-03-01T02:37:11;7.70;57.20
75931;DHT22;64609;47.052;15.462;2023-03-01T02:39:42;7.70;57.40
75931;DHT22;64609;47.052;15.462;2023-03-01T02:42:13;7.70;57.40
75931;DHT22;64609;47.052;15.462;2023-03-01T02:44:39;7.70;57.10
75931;DHT22;64609;47.052;15.462;2023-03-01T02:47:05;7.70;57.40
75931;DHT22;64609;47.052;15.462;2023-03-01T02:49:34;7.70;57.20
75931;DHT22;64609;47.052;15.462;2023-03-01T02:55:12;7.80;57.00
75931;DHT22;64609;47.052;15.462;2023-03-01T02:57:41;7.70;57.80
75931;DHT22;64609;47.052;15.462;2023-03-01T03:00:15;7.70;58.20
75931;DHT22;64609;47.052;15.462;2023-03-01T03:02:49;7.80;58.40
75931;DHT22;64609;47.052;15.462;2023-03-01T03:05:18;7.80;57.60
75931;DHT22;64609;47.052;15.462;2023-03-01T03:07:46;7.80;57.90
75931;DHT22;64609;47.052;15.462;2023-03-01T03:10:37;7.80;57.90
75931;DHT22;64609;47.052;15.462;2023-03-01T03:13:03;7.80;57.60
75931;DHT22;64609;47.052;15.462;2023-03-01T03:15:29;7.80;57.00
75931;DHT22;64609;47.052;15.462;2023-03-01T03:17:56;7.80;57.00
75931;DHT22;64609;47.052;15.462;2023-03-01T03:20:27;7.80;56.90
75931;DHT22;64609;47.052;15.462;2023-03-01T03:22:54;7.80;56.60
75931;DHT22;64609;47.052;15.462;2023-03-01T03:25:21;7.80;56.90
75931;DHT22;64609;47.052;15.462;2023-03-01T03:27:49;7.80;57.00
75931;DHT22;64609;47.052;15.462;2023-03-01T03:30:17;7.70;56.70
75931;DHT22;64609;47.052;15.462;2023-03-01T03:32:45;7.80;56.60
75931;DHT22;64609;47.052;15.462;2023-03-01T03:35:18;7.70;56.50
75931;DHT22;64609;47.052;15.462;2023-03-01T03:37:44;7.70;56.80
75931;DHT22;64609;47.052;15.462;2023-03-01T03:40:32;7.70;56.60
75931;DHT22;64609;47.052;15.462;2023-03-01T03:42:57;7.70;56.60
75931;DHT22;64609;47.052;15.462;2023-03-01T03:45:23;7.70;56.30
75931;DHT22;64609;47.052;15.462;2023-03-01T03:47:49;7.70;56.00
75931;DHT22;64609;47.052;15.462;2023-03-01T03:50:16;7.70;55.60
75931;DHT22;64609;47.052;15.462;2023-03-01T03:52:42;7.60;55.70
75931;DHT22;64609;47.052;15.462;2023-03-01T03:55:10;7.60;55.80
75931;DHT22;64609;47.052;15.462;2023-03-01T03:57:46;7.60;55.90
75931;DHT22;64609;47.052;15.462;2023-03-01T04:00:19;7.60;55.90
75931;DHT22;64609;47.052;15.462;2023-03-01T04:02:46;7.60;56.60
75931;DHT22;64609;47.052;15.462;2023-03-01T04:05:14;7.60;56.20
75931;DHT22;64609;47.052;15.462;2023-03-01T04:07:41;7.60;56.20
75931;DHT22;64609;47.052;15.462;2023-03-01T04:10:10;7.60;56.60
75931;DHT22;64609;47.052;15.462;2023-03-01T04:12:36;7.60;56.70
75931;DHT22;64609;47.052;15.462;2023-03-01T04:15:06;7.60;57.00
75931;DHT22;64609;47.052;15.462;2023-03-01T04:17:45;7.70;57.00
75931;DHT22;64609;47.052;15.462;2023-03-01T04:20:14;7.70;57.40
75931;DHT22;64609;47.052;15.462;2023-03-01T04:22:43;7.70;57.10
75931;DHT22;64609;47.052;15.462;2023-03-01T04:25:09;7.70;57.20
75931;DHT22;64609;47.052;15.462;2023-03-01T04:27:35;7.60;57.60
75931;DHT22;64609;47.052;15.462;2023-03-01T04:30:04;7.60;57.00
75931;DHT22;64609;47.052;15.462;2023-03-01T04:32:31;7.60;57.20
75931;DHT22;64609;47.052;15.462;2023-03-01T04:34:57;7.60;57.40
75931;DHT22;64609;47.052;15.462;2023-03-01T04:37:23;7.60;58.00
75931;DHT22;64609;47.052;15.462;2023-03-01T04:39:49;7.70;58.90
75931;DHT22;64609;47.052;15.462;2023-03-01T04:42:15;7.60;57.20
75931;DHT22;64609;47.052;15.462;2023-03-01T04:44:42;7.60;57.70
75931;DHT22;64609;47.052;15.462;2023-03-01T04:47:08;7.70;57.40
75931;DHT22;64609;47.052;15.462;2023-03-01T04:49:34;7.70;57.30
75931;DHT22;64609;47.052;15.462;2023-03-01T04:52:00;7.70;57.50
75931;DHT22;64609;47.052;15.462;2023-03-01T04:54:34;7.70;57.50
75931;DHT22;64609;47.052;15.462;2023-03-01T04:57:00;7.70;57.70
75931;DHT22;64609;47.052;15.462;2023-03-01T04:59:27;7.70;57.70
75931;DHT22;64609;47.052;15.462;2023-03-01T05:01:53;7.70;57.10
75931;DHT22;64609;47.052;15.462;2023-03-01T05:04:23;7.70;57.30
75931;DHT22;64609;47.052;15.462;2023-03-01T05:06:49;7.70;58.70
75931;DHT22;64609;47.052;15.462;2023-03-01T05:09:15;7.70;57.90
75931;DHT22;64609;47.052;15.462;2023-03-01T05:11:40;7.70;58.20
75931;DHT22;64609;47.052;15.462;2023-03-01T05:14:07;7.70;58.00
75931;DHT22;64609;47.052;15.462;2023-03-01T05:16:34;7.70;57.90
75931;DHT22;64609;47.052;15.462;2023-03-01T05:19:00;7.70;57.90
75931;DHT22;64609;47.052;15.462;2023-03-01T05:21:26;7.70;57.80
75931;DHT22;64609;47.052;15.462;2023-03-01T05:23:52;7.70;57.70
75931;DHT22;64609;47.052;15.462;2023-03-01T05:26:20;7.70;57.80
75931;DHT22;64609;47.052;15.462;2023-03-01T05:28:47;7.70;57.70
75931;DHT22;64609;47.052;15.462;2023-03-01T05:31:12;7.70;58.10
75931;DHT22;64609;47.052;15.462;2023-03-01T05:33:41;7.70;57.10
75931;DHT22;64609;47.052;15.462;2023-03-01T05:36:08;7.70;56.80
75931;DHT22;64609;47.052;15.462;2023-03-01T05:38:35;7.70;57.10
75931;DHT22;64609;47.052;15.462;2023-03-01T05:41:01;7.70;57.20
75931;DHT22;64609;47.052;15.462;2023-03-01T05:43:30;7.70;57.20
75931;DHT22;64609;47.052;15.462;2023-03-01T05:45:59;7.70;57.20
75931;DHT22;64609;47.052;15.462;2023-03-01T05:48:25;7.70;57.20
75931;DHT22;64609;47.052;15.462;2023-03-01T05:50:51;7.80;57.00
75931;DHT22;64609;47.052;15.462;2023-03-01T05:53:18;7.80;56.80
75931;DHT22;64609;47.052;15.462;2023-03-01T05:55:46;7.80;56.40
75931;DHT22;64609;47.052;15.462;2023-03-01T05:58:18;7.70;56.50
75931;DHT22;64609;47.052;15.462;2023-03-01T06:00:46;7.70;56.90
75931;DHT22;64609;47.052;15.462;2023-03-01T06:03:13;7.70;56.20
75931;DHT22;64609;47.052;15.462;2023-03-01T06:05:40;7.50;55.50
75931;DHT22;64609;47.052;15.462;2023-03-01T06:08:06;7.40;56.30
75931;DHT22;64609;47.052;15.462;2023-03-01T06:10:32;7.40;56.90
75931;DHT22;64609;47.052;15.462;2023-03-01T06:12:58;7.50;58.00
75931;DHT22;64609;47.052;15.462;2023-03-01T06:15:24;7.50;57.90
75931;DHT22;64609;47.052;15.462;2023-03-01T06:17:50;7.50;58.20
75931;DHT22;64609;47.052;15.462;2023-03-01T06:20:21;7.60;58.30
75931;DHT22;64609;47.052;15.462;2023-03-01T06:22:48;7.70;58.10
75931;DHT22;64609;47.052;15.462;2023-03-01T06:25:16;7.70;57.80
75931;DHT22;64609;47.052;15.462;2023-03-01T06:27:42;7.70;57.50
75931;DHT22;64609;47.052;15.462;2023-03-01T06:30:09;7.70;57.10
75931;DHT22;64609;47.052;15.462;2023-03-01T06:32:36;7.70;57.40
75931;DHT22;64609;47.052;15.462;2023-03-01T06:35:03;7.70;57.40
75931;DHT22;64609;47.052;15.462;2023-03-01T06:37:29;7.70;57.20
75931;DHT22;64609;47.052;15.462;2023-03-01T06:39:54;7.70;57.50
75931;DHT22;64609;47.052;15.462;2023-03-01T06:42:20;7.70;57.40
75931;DHT22;64609;47.052;15.462;2023-03-01T06:44:46;7.70;57.90
75931;DHT22;64609;47.052;15.462;2023-03-01T06:47:12;7.70;56.90
75931;DHT22;64609;47.052;15.462;2023-03-01T06:49:37;7.70;57.40
75931;DHT22;64609;47.052;15.462;2023-03-01T06:52:03;7.60;57.30
75931;DHT22;64609;47.052;15.462;2023-03-01T06:54:29;7.70;57.30
75931;DHT22;64609;47.052;15.462;2023-03-01T06:56:54;7.60;56.90
75931;DHT22;64609;47.052;15.462;2023-03-01T06:59:20;7.50;56.00
75931;DHT22;64609;47.052;15.462;2023-03-01T07:01:46;7.60;57.40
75931;DHT22;64609;47.052;15.462;2023-03-01T07:04:12;7.70;57.50
75931;DHT22;64609;47.052;15.462;2023-03-01T07:06:39;7.80;57.40
75931;DHT22;64609;47.052;15.462;2023-03-01T07:09:04;7.80;56.90
75931;DHT22;64609;47.052;15.462;2023-03-01T07:11:30;7.80;57.00
75931;DHT22;64609;47.052;15.462;2023-03-01T07:13:56;7.90;56.40
75931;DHT22;64609;47.052;15.462;2023-03-01T07:16:21;7.80;56.20
75931;DHT22;64609;47.052;15.462;2023-03-01T07:18:47;7.80;55.90
75931;DHT22;64609;47.052;15.462;2023-03-01T07:21:14;7.80;54.60
75931;DHT22;64609;47.052;15.462;2023-03-01T07:23:40;7.70;54.60
75931;DHT22;64609;47.052;15.462;2023-03-01T07:26:06;7.50;54.10
75931;DHT22;64609;47.052;15.462;2023-03-01T07:28:32;7.60;55.60
75931;DHT22;64609;47.052;15.462;2023-03-01T07:31:05;7.70;55.10
75931;DHT22;64609;47.052;15.462;2023-03-01T07:33:31;7.80;54.60
75931;DHT22;64609;47.052;15.462;2023-03-01T07:35:58;7.90;55.30
75931;DHT22;64609;47.052;15.462;2023-03-01T07:38:24;7.90;54.30
75931;DHT22;64609;47.052;15.462;2023-03-01T07:40:50;8.00;54.00
75931;DHT22;64609;47.052;15.462;2023-03-01T07:43:16;8.00;54.40
75931;DHT22;64609;47.052;15.462;2023-03-01T07:45:41;8.10;54.50
75931;DHT22;64609;47.052;15.462;2023-03-01T07:48:07;8.10;52.80
75931;DHT22;64609;47.052;15.462;2023-03-01T07:50:32;8.10;52.30
75931;DHT22;64609;47.052;15.462;2023-03-01T07:52:58;8.10;52.30
75931;DHT22;64609;47.052;15.462;2023-03-01T07:55:23;8.10;52.70
75931;DHT22;64609;47.052;15.462;2023-03-01T07:57:49;8.10;53.30
75931;DHT22;64609;47.052;15.462;2023-03-01T08:00:15;8.00;51.50
75931;DHT22;64609;47.052;15.462;2023-03-01T08:02:41;8.00;52.50
75931;DHT22;64609;47.052;15.462;2023-03-01T08:05:08;8.00;52.30
75931;DHT22;64609;47.052;15.462;2023-03-01T08:07:34;8.10;51.90
75931;DHT22;64609;47.052;15.462;2023-03-01T08:10:00;8.00;51.40
75931;DHT22;64609;47.052;15.462;2023-03-01T08:12:26;8.10;52.80
75931;DHT22;64609;47.052;15.462;2023-03-01T08:14:53;8.20;51.80
75931;DHT22;64609;47.052;15.462;2023-03-01T08:17:19;8.20;51.80
75931;DHT22;64609;47.052;15.462;2023-03-01T08:19:44;8.00;50.60
75931;DHT22;64609;47.052;15.462;2023-03-01T08:22:10;8.10;51.60
75931;DHT22;64609;47.052;15.462;2023-03-01T08:24:36;8.10;51.70
75931;DHT22;64609;47.052;15.462;2023-03-01T08:27:02;8.20;53.50
75931;DHT22;64609;47.052;15.462;2023-03-01T08:29:30;8.00;50.90
75931;DHT22;64609;47.052;15.462;2023-03-01T08:31:56;7.90;52.90
75931;DHT22;64609;47.052;15.462;2023-03-01T08:34:21;8.10;54.80
75931;DHT22;64609;47.052;15.462;2023-03-01T08:36:47;8.20;53.40
75931;DHT22;64609;47.052;15.462;2023-03-01T08:39:15;8.20;52.80
75931;DHT22;64609;47.052;15.462;2023-03-01T08:41:41;8.30;53.50
75931;DHT22;64609;47.052;15.462;2023-03-01T08:44:08;8.40;54.00
75931;DHT22;64609;47.052;15.462;2023-03-01T08:46:39;8.50;54.70
75931;DHT22;64609;47.052;15.462;2023-03-01T08:49:16;8.50;52.40
75931;DHT22;64609;47.052;15.462;2023-03-01T08:51:43;8.50;53.80
75931;DHT22;64609;47.052;15.462;2023-03-01T08:54:17;8.40;52.80
75931;DHT22;64609;47.052;15.462;2023-03-01T08:56:43;8.50;54.60
75931;DHT22;64609;47.052;15.462;2023-03-01T08:59:10;8.60;53.90
75931;DHT22;64609;47.052;15.462;2023-03-01T09:01:36;8.70;54.20
75931;DHT22;64609;47.052;15.462;2023-03-01T09:04:02;8.70;54.60
75931;DHT22;64609;47.052;15.462;2023-03-01T09:06:31;8.80;54.60
75931;DHT22;64609;47.052;15.462;2023-03-01T09:08:58;8.90;54.00
75931;DHT22;64609;47.052;15.462;2023-03-01T09:11:24;8.90;54.10
75931;DHT22;64609;47.052;15.462;2023-03-01T09:13:50;9.00;54.50
75931;DHT22;64609;47.052;15.462;2023-03-01T09:16:18;9.00;55.40
75931;DHT22;64609;47.052;15.462;2023-03-01T09:18:45;9.10;54.90
75931;DHT22;64609;47.052;15.462;2023-03-01T09:21:13;9.10;54.80
75931;DHT22;64609;47.052;15.462;2023-03-01T09:23:42;9.20;56.40
75931;DHT22;64609;47.052;15.462;2023-03-01T09:26:09;9.20;55.50
75931;DHT22;64609;47.052;15.462;2023-03-01T09:28:36;9.20;54.90
75931;DHT22;64609;47.052;15.462;2023-03-01T09:31:03;9.30;54.90
75931;DHT22;64609;47.052;15.462;2023-03-01T09:33:31;9.30;55.20
75931;DHT22;64609;47.052;15.462;2023-03-01T09:36:04;9.30;55.80
75931;DHT22;64609;47.052;15.462;2023-03-01T09:38:31;9.40;55.90
75931;DHT22;64609;47.052;15.462;2023-03-01T09:40:57;9.40;55.30
75931;DHT22;64609;47.052;15.462;2023-03-01T09:43:28;9.40;54.30
75931;DHT22;64609;47.052;15.462;2023-03-01T09:46:01;9.40;55.60
75931;DHT22;64609;47.052;15.462;2023-03-01T09:48:42;9.50;55.50
75931;DHT22;64609;47.052;15.462;2023-03-01T09:51:14;9.50;54.30
75931;DHT22;64609;47.052;15.462;2023-03-01T09:53:42;9.50;55.00
75931;DHT22;64609;47.052;15.462;2023-03-01T09:56:22;9.50;54.70
75931;DHT22;64609;47.052;15.462;2023-03-01T09:58:59;9.50;54.20
75931;DHT22;64609;47.052;15.462;2023-03-01T10:07:21;9.60;53.40
75931;DHT22;64609;47.052;15.462;2023-03-01T10:09:52;9.60;53.50
75931;DHT22;64609;47.052;15.462;2023-03-01T10:12:24;9.60;53.80
75931;DHT22;64609;47.052;15.462;2023-03-01T10:19:46;9.70;53.70
75931;DHT22;64609;47.052;15.462;2023-03-01T10:22:24;9.70;53.20
75931;DHT22;64609;47.052;15.462;2023-03-01T10:24:54;9.80;53.00
75931;DHT22;64609;47.052;15.462;2023-03-01T10:27:36;9.80;53.20
75931;DHT22;64609;47.052;15.462;2023-03-01T10:32:36;9.70;53.00
75931;DHT22;64609;47.052;15.462;2023-03-01T10:35:25;9.80;53.60
75931;DHT22;64609;47.052;15.462;2023-03-01T10:38:06;9.80;52.90
75931;DHT22;64609;47.052;15.462;2023-03-01T10:40:34;9.70;53.80
75931;DHT22;64609;47.052;15.462;2023-03-01T10:43:04;9.60;52.60
75931;DHT22;64609;47.052;15.462;2023-03-01T10:48:16;9.50;52.60
75931;DHT22;64609;47.052;15.462;2023-03-01T10:50:48;9.40;52.80
75931;DHT22;64609;47.052;15.462;2023-03-01T10:56:09;9.40;54.10
75931;DHT22;64609;47.052;15.462;2023-03-01T10:58:37;9.30;53.60
75931;DHT22;64609;47.052;15.462;2023-03-01T11:01:06;9.30;54.30
75931;DHT22;64609;47.052;15.462;2023-03-01T11:03:35;9.40;54.60
75931;DHT22;64609;47.052;15.462;2023-03-01T11:11:22;9.50;55.40
75931;DHT22;64609;47.052;15.462;2023-03-01T11:14:07;9.60;55.20
75931;DHT22;64609;47.052;15.462;2023-03-01T11:16:40;9.60;55.10
75931;DHT22;64609;47.052;15.462;2023-03-01T11:21:50;9.60;54.30
75931;DHT22;64609;47.052;15.462;2023-03-01T11:24:18;9.60;54.80
75931;DHT22;64609;47.052;15.462;2023-03-01T11:26:50;9.70;54.90
75931;DHT22;64609;47.052;15.462;2023-03-01T11:29:38;9.70;55.30
75931;DHT22;64609;47.052;15.462;2023-03-01T11:32:08;9.80;54.60
75931;DHT22;64609;47.052;15.462;2023-03-01T11:35:09;9.80;54.70
75931;DHT22;64609;47.052;15.462;2023-03-01T11:40:16;9.90;54.90
75931;DHT22;64609;47.052;15.462;2023-03-01T11:52:07;10.20;54.30
75931;DHT22;64609;47.052;15.462;2023-03-01T12:08:43;10.30;54.00
75931;DHT22;64609;47.052;15.462;2023-03-01T12:27:56;10.60;52.70
75931;DHT22;64609;47.052;15.462;2023-03-01T12:35:54;10.60;52.30
75931;DHT22;64609;47.052;15.462;2023-03-01T12:50:01;11.00;52.40
75931;DHT22;64609;47.052;15.462;2023-03-01T13:06:15;11.00;52.80
75931;DHT22;64609;47.052;15.462;2023-03-01T13:08:54;11.10;52.40
75931;DHT22;64609;47.052;15.462;2023-03-01T13:11:23;11.10;52.20
75931;DHT22;64609;47.052;15.462;2023-03-01T13:13:49;11.20;52.10
75931;DHT22;64609;47.052;15.462;2023-03-01T13:19:21;11.20;51.90
75931;DHT22;64609;47.052;15.462;2023-03-01T13:21:49;11.20;52.00
75931;DHT22;64609;47.052;15.462;2023-03-01T13:29:48;11.00;51.70
75931;DHT22;64609;47.052;15.462;2023-03-01T13:32:24;11.10;52.70
75931;DHT22;64609;47.052;15.462;2023-03-01T13:37:26;11.30;53.30
75931;DHT22;64609;47.052;15.462;2023-03-01T13:39:52;11.30;53.50
75931;DHT22;64609;47.052;15.462;2023-03-01T13:42:53;11.40;53.20
75931;DHT22;64609;47.052;15.462;2023-03-01T13:47:52;11.30;52.40
75931;DHT22;64609;47.052;15.462;2023-03-01T13:50:25;11.30;52.00
75931;DHT22;64609;47.052;15.462;2023-03-01T13:52:58;11.20;53.20
75931;DHT22;64609;47.052;15.462;2023-03-01T13:55:27;11.20;52.70
75931;DHT22;64609;47.052;15.462;2023-03-01T13:57:56;11.20;53.20
75931;DHT22;64609;47.052;15.462;2023-03-01T14:00:41;11.20;52.60
75931;DHT22;64609;47.052;15.462;2023-03-01T14:03:17;11.20;52.30
75931;DHT22;64609;47.052;15.462;2023-03-01T14:06:14;11.20;53.80
75931;DHT22;64609;47.052;15.462;2023-03-01T14:08:45;11.20;53.00
75931;DHT22;64609;47.052;15.462;2023-03-01T14:17:27;11.30;53.10
75931;DHT22;64609;47.052;15.462;2023-03-01T14:19:27;11.30;52.70
75931;DHT22;64609;47.052;15.462;2023-03-01T14:22:23;11.30;53.00
75931;DHT22;64609;47.052;15.462;2023-03-01T14:27:20;11.00;52.20
75931;DHT22;64609;47.052;15.462;2023-03-01T14:30:01;10.90;52.70
75931;DHT22;64609;47.052;15.462;2023-03-01T14:32:30;10.90;54.80
75931;DHT22;64609;47.052;15.462;2023-03-01T14:34:57;11.00;54.20
75931;DHT22;64609;47.052;15.462;2023-03-01T14:37:30;11.10;53.90
75931;DHT22;64609;47.052;15.462;2023-03-01T14:39:57;11.00;53.90
75931;DHT22;64609;47.052;15.462;2023-03-01T14:42:25;11.00;54.30
75931;DHT22;64609;47.052;15.462;2023-03-01T14:44:54;11.00;54.50
75931;DHT22;64609;47.052;15.462;2023-03-01T14:47:28;11.00;54.40
75931;DHT22;64609;47.052;15.462;2023-03-01T14:50:02;11.00;54.10
75931;DHT22;64609;47.052;15.462;2023-03-01T14:52:40;10.90;54.60
75931;DHT22;64609;47.052;15.462;2023-03-01T14:55:16;10.90;56.10
75931;DHT22;64609;47.052;15.462;2023-03-01T14:57:44;10.80;55.20
75931;DHT22;64609;47.052;15.462;2023-03-01T15:00:26;10.70;55.80
75931;DHT22;64609;47.052;15.462;2023-03-01T15:02:54;10.70;55.80
75931;DHT22;64609;47.052;15.462;2023-03-01T15:05:32;10.60;55.90
75931;DHT22;64609;47.052;15.462;2023-03-01T15:08:00;10.40;56.50
75931;DHT22;64609;47.052;15.462;2023-03-01T15:10:30;10.40;57.20
75931;DHT22;64609;47.052;15.462;2023-03-01T15:13:13;10.50;57.50
75931;DHT22;64609;47.052;15.462;2023-03-01T15:15:50;10.50;58.40
75931;DHT22;64609;47.052;15.462;2023-03-01T15:18:26;10.60;59.30
75931;DHT22;64609;47.052;15.462;2023-03-01T15:20:53;10.60;60.00
75931;DHT22;64609;47.052;15.462;2023-03-01T15:23:25;10.60;59.90
75931;DHT22;64609;47.052;15.462;2023-03-01T15:25:53;10.60;59.20
75931;DHT22;64609;47.052;15.462;2023-03-01T15:28:28;10.60;59.50
75931;DHT22;64609;47.052;15.462;2023-03-01T15:31:18;10.60;59.10
75931;DHT22;64609;47.052;15.462;2023-03-01T15:33:44;10.50;59.00
75931;DHT22;64609;47.052;15.462;2023-03-01T15:39:22;10.50;58.90
75931;DHT22;64609;47.052;15.462;2023-03-01T15:41:51;10.50;58.90
75931;DHT22;64609;47.052;15.462;2023-03-01T15:46:49;10.40;59.40
75931;DHT22;64609;47.052;15.462;2023-03-01T15:52:02;10.40;60.40
75931;DHT22;64609;47.052;15.462;2023-03-01T15:54:28;10.30;60.20
75931;DHT22;64609;47.052;15.462;2023-03-01T15:56:54;10.30;60.50
75931;DHT22;64609;47.052;15.462;2023-03-01T15:59:20;10.30;60.50
75931;DHT22;64609;47.052;15.462;2023-03-01T16:01:48;10.30;60.50
75931;DHT22;64609;47.052;15.462;2023-03-01T16:04:16;10.20;60.20
75931;DHT22;64609;47.052;15.462;2023-03-01T16:06:46;10.20;60.90
75931;DHT22;64609;47.052;15.462;2023-03-01T16:09:23;10.20;60.60
75931;DHT22;64609;47.052;15.462;2023-03-01T16:11:50;10.20;60.90
75931;DHT22;64609;47.052;15.462;2023-03-01T16:14:17;10.20;60.80
75931;DHT22;64609;47.052;15.462;2023-03-01T16:16:43;10.20;61.00
75931;DHT22;64609;47.052;15.462;2023-03-01T16:19:09;10.10;61.10
75931;DHT22;64609;47.052;15.462;2023-03-01T16:21:36;10.10;61.50
75931;DHT22;64609;47.052;15.462;2023-03-01T16:24:02;9.90;61.60
75931;DHT22;64609;47.052;15.462;2023-03-01T16:26:28;9.70;61.70
75931;DHT22;64609;47.052;15.462;2023-03-01T16:28:55;9.70;62.30
75931;DHT22;64609;47.052;15.462;2023-03-01T16:31:23;9.70;62.10
75931;DHT22;64609;47.052;15.462;2023-03-01T16:33:49;9.80;62.30
75931;DHT22;64609;47.052;15.462;2023-03-01T16:36:18;9.80;62.30
75931;DHT22;64609;47.052;15.462;2023-03-01T16:38:44;9.80;62.60
75931;DHT22;64609;47.052;15.462;2023-03-01T16:41:13;9.70;62.40
75931;DHT22;64609;47.052;15.462;2023-03-01T16:43:39;9.70;62.60
75931;DHT22;64609;47.052;15.462;2023-03-01T16:46:13;9.70;63.00
75931;DHT22;64609;47.052;15.462;2023-03-01T16:48:39;9.70;63.70
75931;DHT22;64609;47.052;15.462;2023-03-01T16:51:06;9.80;63.80
75931;DHT22;64609;47.052;15.462;2023-03-01T16:53:32;9.70;63.30
75931;DHT22;64609;47.052;15.462;2023-03-01T16:55:59;9.70;63.60
75931;DHT22;64609;47.052;15.462;2023-03-01T16:58:25;9.60;63.60
75931;DHT22;64609;47.052;15.462;2023-03-01T17:00:54;9.60;64.20
75931;DHT22;64609;47.052;15.462;2023-03-01T17:03:22;9.70;64.20
75931;DHT22;64609;47.052;15.462;2023-03-01T17:05:48;9.70;64.40
75931;DHT22;64609;47.052;15.462;2023-03-01T17:08:14;9.70;64.60
75931;DHT22;64609;47.052;15.462;2023-03-01T17:10:40;9.70;64.70
75931;DHT22;64609;47.052;15.462;2023-03-01T17:13:08;9.70;64.70
75931;DHT22;64609;47.052;15.462;2023-03-01T17:15:34;9.50;64.50
75931;DHT22;64609;47.052;15.462;2023-03-01T17:18:00;9.40;65.10
75931;DHT22;64609;47.052;15.462;2023-03-01T17:20:26;9.50;65.30
75931;DHT22;64609;47.052;15.462;2023-03-01T17:22:52;9.50;65.30
75931;DHT22;64609;47.052;15.462;2023-03-01T17:25:17;9.50;65.80
75931;DHT22;64609;47.052;15.462;2023-03-01T17:27:44;9.60;66.30
75931;DHT22;64609;47.052;15.462;2023-03-01T17:30:11;9.60;66.10
75931;DHT22;64609;47.052;15.462;2023-03-01T17:32:37;9.60;67.40
75931;DHT22;64609;47.052;15.462;2023-03-01T17:35:03;9.60;66.60
75931;DHT22;64609;47.052;15.462;2023-03-01T17:37:29;9.60;66.90
75931;DHT22;64609;47.052;15.462;2023-03-01T17:39:55;9.60;67.00
75931;DHT22;64609;47.052;15.462;2023-03-01T17:42:20;9.60;67.40
75931;DHT22;64609;47.052;15.462;2023-03-01T17:44:46;9.60;67.10
75931;DHT22;64609;47.052;15.462;2023-03-01T17:47:12;9.60;67.80
75931;DHT22;64609;47.052;15.462;2023-03-01T17:49:37;9.60;67.80
75931;DHT22;64609;47.052;15.462;2023-03-01T17:52:03;9.60;68.00
75931;DHT22;64609;47.052;15.462;2023-03-01T17:54:29;9.60;68.20